Time;durP1;ratioP1;P1;durP2;ratioP2;P2;SDS_P1;SDS_P2;PMS_P1;PMS_P2;Temp;Humidity;BMP_temperature;BMP_pressure;BME280_temperature;BME280_humidity;BME280_pressure;Samples;Min_cycle;Max_cycle;Signal;HPM_P1;HPM_P2
2023/07/08 00:01:54;;;;;;;7.57;2.75;;;;;;;25.62;55.10;101370.00;5058729;28;20048;-78
2023/07/08 00:04:40;;;;;;;7.95;3.38;;;;;;;25.62;55.32;101377.56;5044414;28;20055;-78
2023/07/08 00:07:24;;;;;;;5.65;3.03;;;;;;;25.60;55.15;101382.75;5058655;28;20051;-78
2023/07/08 00:10:17;;;;;;;7.25;3.10;;;;;;;25.56;55.07;101382.75;5043665;28;20068;-78
2023/07/08 00:13:01;;;;;;;5.72;2.83;;;;;;;25.53;55.16;101375.19;5059021;28;20064;-79
2023/07/08 00:15:46;;;;;;;8.30;3.17;;;;;;;25.53;54.79;101370.41;5057520;28;20047;-79
2023/07/08 00:18:31;;;;;;;5.70;3.13;;;;;;;25.57;54.88;101366.84;5058224;28;20421;-79
2023/07/08 00:21:17;;;;;;;4.90;3.60;;;;;;;25.52;54.73;101354.88;5058402;28;20048;-79
2023/07/08 00:24:02;;;;;;;4.70;2.80;;;;;;;25.53;54.78;101356.47;5047564;28;20055;-78
2023/07/08 00:26:47;;;;;;;5.32;3.35;;;;;;;25.51;54.76;101335.78;5057354;28;20043;-78
2023/07/08 00:29:32;;;;;;;6.82;2.55;;;;;;;25.49;54.79;101338.97;5043511;28;20059;-78
2023/07/08 00:32:16;;;;;;;6.32;3.72;;;;;;;25.52;53.94;101329.00;5058492;28;20048;-79
2023/07/08 00:35:01;;;;;;;8.23;3.20;;;;;;;25.54;54.23;101319.06;5043040;28;20052;-79
2023/07/08 00:37:46;;;;;;;;;;;;;;;25.50;54.74;101323.84;5043523;28;20048;-79
2023/07/08 00:40:32;;;;;;;4.20;2.90;;;;;;;25.52;54.50;101315.09;5043145;28;19912;-79
2023/07/08 00:43:23;;;;;;;4.10;3.17;;;;;;;25.38;54.69;101315.94;5057755;28;20064;-79
2023/07/08 00:46:27;;;;;;;7.13;3.22;;;;;;;25.45;54.44;101304.75;5042678;28;20044;-79
2023/07/08 00:49:27;;;;;;;7.88;3.10;;;;;;;25.48;54.53;101306.75;5046796;28;20044;-79
2023/07/08 00:52:27;;;;;;;7.32;2.80;;;;;;;25.46;54.55;101311.91;5041018;28;20048;-79
2023/07/08 00:55:12;;;;;;;10.70;3.88;;;;;;;25.48;54.39;101322.66;5045440;28;20040;-79
2023/07/08 00:57:57;;;;;;;5.22;2.88;;;;;;;25.33;53.92;101324.69;5043840;28;20047;-79
2023/07/08 01:00:42;;;;;;;7.18;3.53;;;;;;;24.95;54.83;101319.97;5041887;28;20060;-79
2023/07/08 01:03:28;;;;;;;4.20;2.78;;;;;;;24.86;55.19;101328.69;5045511;28;20642;-79
2023/07/08 01:06:13;;;;;;;7.68;3.35;;;;;;;25.01;55.34;101326.72;5056394;28;20040;-79
2023/07/08 01:09:04;;;;;;;7.22;2.95;;;;;;;25.17;54.79;101327.09;5055677;28;20055;-79
2023/07/08 01:11:49;;;;;;;5.53;3.08;;;;;;;25.19;55.18;101326.72;5045002;28;20552;-79
2023/07/08 01:14:37;;;;;;;6.63;2.78;;;;;;;25.28;55.21;101327.88;5043890;28;20055;-80
2023/07/08 01:17:23;;;;;;;4.35;2.72;;;;;;;25.32;55.39;101327.88;5041670;28;20048;-80
2023/07/08 01:20:13;;;;;;;5.97;2.63;;;;;;;25.33;54.96;101333.03;5044427;28;20051;-79
2023/07/08 01:22:57;;;;;;;6.13;3.20;;;;;;;25.36;55.26;101335.00;5029964;28;20052;-80
2023/07/08 01:25:44;;;;;;;5.03;3.13;;;;;;;25.36;54.67;101346.16;5027405;28;20052;-79
2023/07/08 01:28:30;;;;;;;4.60;2.85;;;;;;;25.37;54.98;101344.97;5048143;28;20043;-80
2023/07/08 01:31:14;;;;;;;6.43;3.03;;;;;;;25.09;54.24;101348.56;5045059;28;20052;-80
2023/07/08 01:33:59;;;;;;;7.07;3.28;;;;;;;25.17;55.18;101341.03;5044886;28;20060;-80
2023/07/08 01:36:49;;;;;;;6.13;2.97;;;;;;;25.22;55.02;101340.63;5044362;28;20060;-80
2023/07/08 01:39:34;;;;;;;7.40;3.55;;;;;;;25.28;54.83;101349.34;5047275;28;20040;-79
2023/07/08 01:42:19;;;;;;;6.85;2.75;;;;;;;25.32;54.53;101337.03;5045156;28;20051;-79
2023/07/08 01:45:09;;;;;;;;;;;;;;;25.34;54.46;101329.06;5049627;28;20052;-80
2023/07/08 01:48:04;;;;;;;5.72;3.08;;;;;;;25.32;54.66;101330.66;5047614;28;19912;-79
2023/07/08 01:51:03;;;;;;;6.68;2.95;;;;;;;25.30;54.41;101325.47;5058534;28;20040;-79
2023/07/08 01:53:47;;;;;;;7.13;2.58;;;;;;;25.32;54.73;101333.44;5048262;28;20047;-79
2023/07/08 01:56:32;;;;;;;7.18;3.38;;;;;;;25.30;54.64;101341.38;5046358;28;20044;-79
2023/07/08 01:59:17;;;;;;;10.52;3.30;;;;;;;25.29;54.39;101337.03;5045574;28;20052;-79
2023/07/08 02:02:03;;;;;;;7.78;3.17;;;;;;;25.28;54.41;101333.44;5049211;28;20048;-79
2023/07/08 02:04:48;;;;;;;7.40;3.03;;;;;;;25.23;54.10;101319.13;5047356;28;20055;-80
2023/07/08 02:07:32;;;;;;;8.20;3.30;;;;;;;25.20;54.54;101314.34;5045149;28;20504;-79
2023/07/08 02:10:17;;;;;;;4.35;2.50;;;;;;;25.21;54.25;101315.94;5048607;28;20064;-80
2023/07/08 02:13:02;;;;;;;;;;;;;;;25.21;54.43;101304.81;5048080;28;20048;-80
2023/07/08 02:15:47;;;;;;;12.00;2.90;;;;;;;25.16;54.34;101303.25;5045495;28;19912;-79
2023/07/08 02:18:32;;;;;;;6.65;2.33;;;;;;;25.23;54.51;101308.81;5059769;28;20052;-80
2023/07/08 02:21:17;;;;;;;7.05;3.38;;;;;;;25.21;54.43;101304.81;5031550;28;20044;-79
2023/07/08 02:24:04;;;;;;;6.53;3.03;;;;;;;25.17;54.52;101315.16;5046437;28;20052;-78
2023/07/08 02:26:49;;;;;;;6.30;3.28;;;;;;;25.13;54.46;101315.97;5049272;28;20055;-79
2023/07/08 02:29:34;;;;;;;12.98;3.22;;;;;;;25.12;54.50;101314.38;5043372;28;20136;-80
2023/07/08 02:32:19;;;;;;;5.40;3.03;;;;;;;25.11;54.53;101317.56;5046281;28;20060;-80
2023/07/08 02:35:06;;;;;;;4.78;2.83;;;;;;;25.12;54.71;101322.75;5050050;28;20047;-80
2023/07/08 02:37:51;;;;;;;6.28;3.25;;;;;;;25.09;54.58;101323.50;5059962;28;20056;-80
2023/07/08 02:40:37;;;;;;;5.72;3.53;;;;;;;25.11;54.45;101309.22;5045851;28;20040;-80
2023/07/08 02:43:22;;;;;;;6.82;3.13;;;;;;;25.05;54.30;101305.22;5059109;28;20056;-79
2023/07/08 02:46:07;;;;;;;5.15;3.22;;;;;;;25.09;54.54;101300.47;5048471;28;20414;-80
2023/07/08 02:48:52;;;;;;;7.97;3.22;;;;;;;25.03;53.92;101291.75;5059296;28;20051;-79
2023/07/08 02:51:37;;;;;;;4.30;2.83;;;;;;;25.00;54.68;101284.16;5059389;28;20064;-80
2023/07/08 02:54:21;;;;;;;6.40;3.28;;;;;;;25.01;54.58;101296.09;5059740;28;20048;-79
2023/07/08 02:57:06;;;;;;;;;;;;;;;25.02;54.92;101297.69;5044975;28;20524;-79
2023/07/08 02:59:50;;;;;;;6.38;3.13;;;;;;;25.03;54.74;101302.06;5058157;28;19912;-79
2023/07/08 03:02:35;;;;;;;;;;;;;;;25.04;54.80;101300.88;5047677;28;20071;-79
2023/07/08 03:05:20;;;;;;;7.90;3.33;;;;;;;24.97;55.19;101306.44;5058163;28;19921;-78
2023/07/08 03:08:08;;;;;;;8.48;3.30;;;;;;;24.97;54.97;101312.00;5042825;28;20048;-79
2023/07/08 03:11:00;;;;;;;;;;;;;;;24.95;55.02;101301.28;5044784;28;20048;-79
2023/07/08 03:13:44;;;;;;;4.53;3.00;;;;;;;24.96;54.93;101302.06;5057623;28;19913;-80
2023/07/08 03:16:29;;;;;;;5.85;2.55;;;;;;;24.97;55.10;101309.22;5028923;28;20059;-79
2023/07/08 03:19:15;;;;;;;;;;;;;;;24.94;54.69;101307.25;5033038;28;20540;-79
2023/07/08 03:22:02;;;;;;;16.73;4.15;;;;;;;24.91;54.84;101300.50;5071448;22;19921;-78
2023/07/08 03:24:47;;;;;;;8.18;2.88;;;;;;;24.95;54.75;101295.72;5049339;28;20047;-79
2023/07/08 03:27:36;;;;;;;6.07;3.13;;;;;;;24.92;54.62;101293.72;5061131;28;20051;-79
2023/07/08 03:30:20;;;;;;;5.20;2.60;;;;;;;24.91;54.75;101283.00;5058982;28;20055;-79
2023/07/08 03:33:09;;;;;;;4.35;2.97;;;;;;;24.85;54.57;101265.88;5064335;28;20055;-81
2023/07/08 03:35:55;;;;;;;8.85;3.38;;;;;;;24.87;54.56;101268.25;5061436;28;20052;-80
2023/07/08 03:38:39;;;;;;;5.22;3.05;;;;;;;24.81;54.95;101270.66;5058892;28;20047;-78
2023/07/08 03:41:24;;;;;;;6.88;3.38;;;;;;;24.78;54.88;101273.44;5060863;28;20103;-79
2023/07/08 03:44:09;;;;;;;7.75;3.38;;;;;;;24.79;55.09;101277.81;5075371;28;20050;-78
2023/07/08 03:46:53;;;;;;;;;;;;;;;24.80;54.77;101280.19;5075286;28;20063;-78
2023/07/08 03:49:38;;;;;;;5.50;2.40;;;;;;;24.78;54.74;101281.78;5064656;28;20377;-78
2023/07/08 03:52:23;;;;;;;;;;;;;;;24.79;54.81;101278.59;5074533;28;20060;-79
2023/07/08 03:55:11;;;;;;;3.80;2.83;;;;;;;24.81;54.84;101289.34;5060283;28;20304;-79
2023/07/08 03:57:56;;;;;;;5.05;3.28;;;;;;;24.78;55.10;101281.78;5063408;28;20051;-79
2023/07/08 04:00:41;;;;;;;6.18;2.83;;;;;;;24.77;54.97;101275.44;5047330;28;20043;-78
2023/07/08 04:03:25;;;;;;;5.50;2.90;;;;;;;24.79;55.04;101291.72;5045706;28;20056;-76
2023/07/08 04:06:10;;;;;;;8.77;2.90;;;;;;;24.75;55.39;101288.13;5063320;28;20047;-78
2023/07/08 04:08:55;;;;;;;4.18;2.92;;;;;;;24.73;55.09;101291.34;5073368;28;20520;-77
2023/07/08 04:11:40;;;;;;;;;;;;;;;24.75;55.43;101290.91;5059688;28;20516;-80
2023/07/08 04:14:25;;;;;;;8.10;3.35;;;;;;;24.70;55.54;101281.78;5072792;28;19912;-80
2023/07/08 04:17:11;;;;;;;4.68;2.95;;;;;;;24.74;54.96;101287.34;5047360;28;20059;-79
2023/07/08 04:19:56;;;;;;;10.10;3.33;;;;;;;24.68;55.39;101277.81;5059785;28;20071;-79
2023/07/08 04:22:41;;;;;;;10.95;3.45;;;;;;;24.66;55.46;101281.00;5057379;28;20102;-79
2023/07/08 04:25:26;;;;;;;5.47;3.15;;;;;;;24.63;55.81;101276.25;5072383;28;20055;-80
2023/07/08 04:28:11;;;;;;;11.13;2.90;;;;;;;24.64;55.88;101275.03;5072276;28;20048;-77
2023/07/08 04:30:55;;;;;;;8.68;3.38;;;;;;;24.64;55.67;101275.03;5072413;28;20064;-79
2023/07/08 04:33:40;;;;;;;7.53;2.95;;;;;;;24.67;55.90;101284.56;5072185;28;20405;-80
2023/07/08 04:36:26;;;;;;;5.05;3.03;;;;;;;24.68;55.69;101300.06;5060016;28;20043;-78
2023/07/08 04:39:12;;;;;;;6.43;3.60;;;;;;;24.65;56.08;101289.72;5043915;28;20036;-77
2023/07/08 04:41:56;;;;;;;7.25;3.30;;;;;;;24.63;55.97;101292.94;5057284;28;20048;-76
2023/07/08 04:44:42;;;;;;;7.00;3.15;;;;;;;24.64;56.13;101288.94;5072540;28;20047;-80
2023/07/08 04:47:29;;;;;;;5.93;2.97;;;;;;;24.61;56.03;101295.28;5071879;28;20052;-79
2023/07/08 04:50:13;;;;;;;5.80;2.95;;;;;;;24.61;56.35;101300.88;5060020;28;20047;-79
2023/07/08 04:52:58;;;;;;;5.38;2.88;;;;;;;24.61;56.53;101300.06;5042170;28;20071;-79
2023/07/08 04:56:01;;;;;;;4.70;2.78;;;;;;;24.63;56.60;101304.06;5037665;28;20048;-79
2023/07/08 04:58:45;;;;;;;5.88;3.20;;;;;;;24.61;56.75;101300.06;5050871;28;20044;-79
2023/07/08 05:01:30;;;;;;;7.28;2.63;;;;;;;24.62;56.97;101307.22;5053480;28;20402;-78
2023/07/08 05:04:16;;;;;;;;;;;;;;;24.64;56.94;101311.19;5037629;28;20051;-78
2023/07/08 05:07:00;;;;;;;;;;;;;;;24.67;56.89;101310.41;5037866;28;19912;-79
2023/07/08 05:09:44;;;;;;;4.43;2.60;;;;;;;24.81;56.42;101306.03;5052759;28;19912;-79
2023/07/08 05:12:31;;;;;;;8.07;3.40;;;;;;;24.84;56.30;101302.47;5037196;28;20056;-80
2023/07/08 05:15:15;;;;;;;376.70;85.28;;;;;;;24.88;56.48;101303.28;5024051;28;20048;-79
2023/07/08 05:18:00;;;;;;;36.47;9.18;;;;;;;24.85;56.61;101290.13;5047230;28;20040;-82
2023/07/08 05:20:51;;;;;;;7.22;3.28;;;;;;;24.82;56.54;101293.72;5046695;28;20036;-81
2023/07/08 05:23:36;;;;;;;7.82;3.35;;;;;;;24.68;57.16;101289.75;5035899;28;20039;-82
2023/07/08 05:26:21;;;;;;;6.93;3.08;;;;;;;24.62;57.33;101276.63;5049702;28;20040;-80
2023/07/08 05:29:06;;;;;;;8.77;3.28;;;;;;;24.61;57.38;101272.25;5040073;28;20044;-82
2023/07/08 05:31:51;;;;;;;;;;;;;;;24.67;57.49;101270.66;5039952;28;20052;-85
2023/07/08 05:34:35;;;;;;;7.50;3.57;;;;;;;24.71;57.54;101272.25;5045997;28;19921;-84
2023/07/08 05:37:24;;;;;;;7.88;3.58;;;;;;;24.84;58.19;101260.72;5048395;28;20048;-83
2023/07/08 05:40:09;;;;;;;12.30;3.72;;;;;;;24.88;57.46;101259.56;5047125;28;20059;-84
2023/07/08 05:42:54;;;;;;;8.57;3.40;;;;;;;25.01;58.12;101262.69;5061763;28;20048;-84
2023/07/08 05:45:39;;;;;;;10.55;3.58;;;;;;;25.00;57.79;101264.69;5060075;28;20055;-83
2023/07/08 05:48:24;;;;;;;;;;;;;;;25.04;57.83;101273.06;5057106;28;20048;-83
2023/07/08 05:51:08;;;;;;;5.25;3.00;;;;;;;25.08;57.29;101271.06;5046546;28;19917;-83
2023/07/08 05:53:53;;;;;;;3.70;2.83;;;;;;;25.10;56.35;101269.44;5045965;28;20044;-84
2023/07/08 05:56:37;;;;;;;;;;;;;;;25.23;56.11;101253.13;5044674;28;20067;-84
2023/07/08 05:59:22;;;;;;;6.90;3.60;;;;;;;25.32;56.28;101264.63;5048449;28;19916;-82
2023/07/08 06:02:10;;;;;;;12.05;3.33;;;;;;;25.41;56.28;101264.19;5056989;28;20766;-83
2023/07/08 06:04:55;;;;;;;6.78;3.50;;;;;;;25.50;55.74;101265.34;5058362;28;20051;-82
2023/07/08 06:07:40;;;;;;;4.90;2.80;;;;;;;25.62;54.57;101264.16;5042601;28;20111;-83
2023/07/08 06:10:25;;;;;;;9.82;3.25;;;;;;;25.54;54.90;101260.56;5060158;28;20051;-83
2023/07/08 06:13:11;;;;;;;14.15;3.80;;;;;;;25.44;55.18;101253.06;5058469;28;20067;-82
2023/07/08 06:15:56;;;;;;;6.90;3.47;;;;;;;25.36;55.37;101257.03;5060156;28;20051;-83
2023/07/08 06:18:40;;;;;;;;;;;;;;;25.37;54.87;101255.06;5051108;28;20051;-86
2023/07/08 06:21:25;;;;;;;9.77;4.28;;;;;;;25.41;54.79;101253.84;5048938;28;19912;-87
2023/07/08 06:24:10;;;;;;;9.57;3.88;;;;;;;25.71;54.28;101256.13;5061779;28;20044;-86
2023/07/08 06:26:55;;;;;;;8.70;3.55;;;;;;;26.11;52.88;101260.28;5064972;28;20425;-87
2023/07/08 06:29:41;;;;;;;6.07;3.30;;;;;;;26.42;51.64;101255.72;5049181;28;20047;-86
2023/07/08 06:32:26;;;;;;;5.30;3.03;;;;;;;26.76;50.71;101247.47;5060891;28;20052;-85
2023/07/08 06:35:11;;;;;;;8.23;3.50;;;;;;;26.94;49.01;101253.69;5050834;28;20044;-84
2023/07/08 06:37:56;;;;;;;4.57;2.95;;;;;;;26.85;48.44;101253.38;5062999;28;20067;-86
2023/07/08 06:40:44;;;;;;;8.57;3.78;;;;;;;26.52;50.33;101242.88;5046904;28;20119;-87
2023/07/08 06:43:29;;;;;;;6.80;3.30;;;;;;;26.26;50.80;101253.44;5064211;28;20444;-85
2023/07/08 06:46:37;;;;;;;6.70;2.83;;;;;;;26.13;47.34;101249.53;5066238;28;20063;-84
2023/07/08 06:49:21;;;;;;;6.15;3.50;;;;;;;26.26;47.19;101259.03;5046253;28;20047;-84
2023/07/08 06:52:06;;;;;;;;;;;;;;;26.19;48.75;101270.22;5060490;28;20048;-82
2023/07/08 06:54:50;;;;;;;5.20;3.53;;;;;;;26.30;47.97;101275.75;5062973;28;19912;-81
2023/07/08 06:57:35;;;;;;;;;;;;;;;26.34;46.31;101282.88;5060592;28;20055;-85
2023/07/08 07:00:20;;;;;;;6.75;2.75;;;;;;;26.36;46.31;101282.50;5063321;28;19916;-83
2023/07/08 07:03:05;;;;;;;7.70;3.08;;;;;;;26.46;45.56;101297.56;5047963;28;20516;-84
2023/07/08 07:05:50;;;;;;;8.45;3.53;;;;;;;26.13;46.64;101304.50;5060282;28;20051;-81
2023/07/08 07:08:34;;;;;;;;;;;;;;;26.18;48.58;101307.66;5049891;28;20409;-83
2023/07/08 07:11:19;;;;;;;6.65;3.40;;;;;;;26.23;47.14;101298.88;5046579;28;19916;-83
2023/07/08 07:14:04;;;;;;;6.05;3.20;;;;;;;26.44;45.45;101292.38;5053095;28;20540;-82
2023/07/08 07:16:49;;;;;;;12.50;3.22;;;;;;;26.65;45.00;101288.63;5062880;28;20055;-84
2023/07/08 07:19:33;;;;;;;5.90;3.45;;;;;;;26.62;44.15;101283.84;5047714;28;20409;-84
2023/07/08 07:22:18;;;;;;;9.05;3.25;;;;;;;26.93;42.85;101271.66;5044768;28;20048;-81
2023/07/08 07:25:04;;;;;;;5.90;3.15;;;;;;;26.80;42.52;101281.72;5063670;28;20043;-83
2023/07/08 07:27:48;;;;;;;6.60;3.58;;;;;;;26.86;41.71;101270.91;5058760;28;20056;-82
2023/07/08 07:30:33;;;;;;;;;;;;;;;26.86;42.82;101280.06;5046670;28;20043;-82
2023/07/08 07:33:17;;;;;;;6.43;3.53;;;;;;;27.11;43.63;101277.06;5063866;28;19916;-82
2023/07/08 07:36:02;;;;;;;6.65;2.88;;;;;;;26.92;41.89;101275.63;5062363;28;20405;-83
2023/07/08 07:38:47;;;;;;;5.85;2.95;;;;;;;26.86;41.47;101271.69;5067162;28;20119;-84
2023/07/08 07:41:32;;;;;;;9.52;3.78;;;;;;;26.76;40.38;101276.19;5070565;28;20044;-84
2023/07/08 07:44:17;;;;;;;9.30;2.95;;;;;;;27.17;41.38;101278.97;5052539;28;20043;-82
2023/07/08 07:47:03;;;;;;;7.15;3.17;;;;;;;27.15;38.40;101278.63;5045960;28;20047;-82
2023/07/08 07:49:47;;;;;;;5.40;2.95;;;;;;;27.18;35.55;101300.13;5046708;28;20524;-83
2023/07/08 07:52:33;;;;;;;3.92;2.67;;;;;;;27.20;35.88;101294.91;5065326;28;20063;-84
2023/07/08 07:55:18;;;;;;;5.45;2.75;;;;;;;27.12;36.78;101287.81;5049180;28;20051;-83
2023/07/08 07:58:04;;;;;;;6.13;2.90;;;;;;;27.48;37.72;101290.25;5045773;28;20347;-84
2023/07/08 08:00:49;;;;;;;3.47;2.50;;;;;;;27.53;36.38;101304.53;5063748;28;20051;-83
2023/07/08 08:03:34;;;;;;;4.53;2.85;;;;;;;27.45;38.90;101305.81;5047993;28;20111;-84
2023/07/08 08:06:19;;;;;;;3.88;2.63;;;;;;;27.37;36.24;101304.31;5059445;28;20524;-84
2023/07/08 08:09:04;;;;;;;4.28;2.03;;;;;;;27.59;36.68;101300.09;5064077;28;20052;-86
2023/07/08 08:11:51;;;;;;;3.80;2.63;;;;;;;28.12;37.68;101295.03;5050955;28;20536;-84
2023/07/08 08:14:35;;;;;;;4.55;2.92;;;;;;;27.85;35.12;101300.56;5047245;28;20516;-83
2023/07/08 08:17:20;;;;;;;4.82;2.75;;;;;;;28.17;37.13;101300.16;5049219;28;20051;-84
2023/07/08 08:20:05;;;;;;;4.38;2.83;;;;;;;28.29;36.38;101305.19;5046827;28;20043;-84
2023/07/08 08:22:51;;;;;;;7.90;2.90;;;;;;;27.99;37.43;101305.97;5045050;28;20043;-85
2023/07/08 08:25:36;;;;;;;6.57;3.00;;;;;;;28.11;36.26;101311.00;5048720;28;20039;-83
2023/07/08 08:28:20;;;;;;;;;;;;;;;28.27;34.31;101310.41;5062323;28;20056;-85
2023/07/08 08:31:04;;;;;;;15.88;3.10;;;;;;;29.37;34.68;101303.78;5059043;28;19912;-84
2023/07/08 08:33:51;;;;;;;4.22;2.58;;;;;;;28.76;34.02;101304.06;5049286;28;20047;-85
2023/07/08 08:36:36;;;;;;;9.77;3.00;;;;;;;29.47;35.68;101297.16;5046438;28;20051;-84
2023/07/08 08:39:21;;;;;;;9.07;3.20;;;;;;;28.45;33.88;101299.72;5045488;28;20147;-84
2023/07/08 08:42:21;;;;;;;5.15;3.42;;;;;;;29.13;34.04;101305.81;5043773;28;20059;-84
2023/07/08 08:45:11;;;;;;;4.78;3.10;;;;;;;29.17;33.69;101311.34;5045521;28;20512;-84
2023/07/08 08:48:03;;;;;;;8.23;2.83;;;;;;;28.96;34.21;101320.13;5057398;28;20536;-83
2023/07/08 08:50:56;;;;;;;4.55;2.92;;;;;;;28.96;33.45;101317.31;5046884;28;20059;-82
2023/07/08 08:53:42;;;;;;;3.67;2.80;;;;;;;29.34;34.04;101315.84;5058808;28;20409;-84
2023/07/08 08:56:46;;;;;;;4.05;2.53;;;;;;;29.07;35.29;101309.53;5043470;28;20052;-86
2023/07/08 08:59:56;;;;;;;5.10;3.10;;;;;;;28.83;35.31;101326.34;5055152;28;20067;-86
2023/07/08 09:02:53;;;;;;;4.53;2.67;;;;;;;28.91;34.93;101311.00;5060515;28;20044;-86
2023/07/08 09:05:37;;;;;;;5.07;2.50;;;;;;;29.20;32.42;101316.09;5046233;28;20044;-85
2023/07/08 09:08:36;;;;;;;4.75;2.80;;;;;;;29.07;36.73;101320.72;5044485;28;20056;-86
2023/07/08 09:11:40;;;;;;;5.22;2.70;;;;;;;29.26;33.27;101326.38;5045110;28;20067;-83
2023/07/08 09:14:30;;;;;;;4.00;2.90;;;;;;;29.41;33.98;101321.31;5044977;28;20051;-86
2023/07/08 09:17:34;;;;;;;3.97;2.70;;;;;;;29.05;35.55;101329.56;5042451;28;20040;-84
2023/07/08 09:20:33;;;;;;;6.10;2.53;;;;;;;28.87;35.23;101320.69;5046199;28;20051;-82
2023/07/08 09:23:26;;;;;;;5.25;3.05;;;;;;;28.51;37.72;101326.03;5031104;28;20056;-79
2023/07/08 09:26:18;;;;;;;6.75;3.00;;;;;;;28.85;36.20;101329.50;5034224;28;20044;-80
2023/07/08 09:29:08;;;;;;;5.75;3.08;;;;;;;29.29;35.73;101333.13;5065154;28;20040;-81
2023/07/08 09:31:53;;;;;;;6.07;2.60;;;;;;;30.26;33.37;101332.78;5059905;28;20070;-80
2023/07/08 09:34:46;;;;;;;3.65;2.30;;;;;;;29.95;35.29;101333.06;5037839;28;20068;-81
2023/07/08 09:37:36;;;;;;;4.55;2.72;;;;;;;30.51;33.83;101333.03;5027100;28;20052;-81
2023/07/08 09:40:33;;;;;;;5.63;2.45;;;;;;;30.11;31.84;101338.72;5021907;28;20053;-81
2023/07/08 09:43:25;;;;;;;5.72;2.92;;;;;;;30.71;33.28;101339.38;5031323;28;20041;-80
2023/07/08 09:46:12;;;;;;;4.25;2.88;;;;;;;31.06;31.70;101340.50;5022130;28;20110;-80
2023/07/08 09:48:57;;;;;;;4.07;3.08;;;;;;;31.34;30.27;101342.56;5035337;28;20049;-82
2023/07/08 09:51:41;;;;;;;6.85;2.78;;;;;;;31.12;32.10;101344.38;5026975;28;20068;-81
2023/07/08 09:54:26;;;;;;;10.15;3.40;;;;;;;31.71;30.82;101343.97;5030517;28;20525;-82
2023/07/08 09:57:31;;;;;;;6.35;3.03;;;;;;;33.07;30.04;101349.78;5035811;28;20057;-82
2023/07/08 10:00:19;;;;;;;5.63;2.83;;;;;;;33.58;28.36;101346.78;5044325;28;20056;-80
2023/07/08 10:03:36;;;;;;;7.45;3.30;;;;;;;34.01;28.77;101337.53;5023416;28;20441;-81
2023/07/08 10:06:30;;;;;;;7.07;3.10;;;;;;;34.68;27.20;101346.22;5001370;28;20545;-78
2023/07/08 10:09:24;;;;;;;4.30;3.17;;;;;;;35.65;26.18;101341.59;5022405;28;20053;-78
2023/07/08 10:12:13;;;;;;;5.47;3.08;;;;;;;36.23;25.79;101347.00;5016635;28;20057;-78
2023/07/08 10:15:06;;;;;;;5.82;3.08;;;;;;;34.93;26.56;101345.94;5017591;28;20049;-79
2023/07/08 10:17:52;;;;;;;5.43;2.80;;;;;;;34.69;26.32;101337.25;5018639;28;20049;-78
2023/07/08 10:21:08;;;;;;;5.90;2.92;;;;;;;34.60;27.25;101337.19;5016712;28;20118;-79
2023/07/08 10:24:10;;;;;;;5.47;2.80;;;;;;;36.82;24.93;101336.03;5015813;28;20049;-79
2023/07/08 10:27:12;;;;;;;9.63;3.40;;;;;;;39.32;22.08;101339.50;5016252;28;20045;-79
2023/07/08 10:30:02;;;;;;;5.38;3.03;;;;;;;40.89;20.21;101345.28;5033377;28;20060;-76
2023/07/08 10:32:53;;;;;;;5.45;3.42;;;;;;;42.14;18.82;101346.63;5017335;28;20438;-79
2023/07/08 10:35:47;;;;;;;4.05;3.03;;;;;;;43.25;17.64;101337.00;5016299;28;20053;-79
2023/07/08 10:38:35;;;;;;;4.72;3.10;;;;;;;44.44;16.03;101337.16;5042742;28;20053;-79
2023/07/08 10:41:40;;;;;;;4.97;2.95;;;;;;;46.63;14.39;101351.44;5017077;28;20053;-82
2023/07/08 10:44:46;;;;;;;5.30;3.00;;;;;;;43.18;15.96;101329.72;5017335;28;20041;-80
2023/07/08 10:47:34;;;;;;;5.18;3.30;;;;;;;46.17;14.82;101338.44;5017155;28;20051;-79
2023/07/08 10:50:43;;;;;;;6.93;3.25;;;;;;;46.61;13.99;101341.78;5023848;28;20125;-79
2023/07/08 10:54:03;;;;;;;4.20;3.22;;;;;;;48.11;12.69;101329.69;5019697;28;20056;-80
2023/07/08 10:56:55;;;;;;;5.25;2.20;;;;;;;48.50;12.71;101327.91;5026747;28;20082;-81
2023/07/08 10:59:56;;;;;;;7.68;3.33;;;;;;;48.05;12.72;101326.22;5045446;28;20112;-81
2023/07/08 11:03:03;;;;;;;5.03;2.72;;;;;;;48.03;12.90;101321.00;5037678;28;20422;-80
2023/07/08 11:06:00;;;;;;;6.85;2.88;;;;;;;47.64;12.63;101315.44;5025193;28;20064;-81
2023/07/08 11:08:53;;;;;;;6.40;3.38;;;;;;;45.87;14.09;101309.13;5037995;28;20044;-81
2023/07/08 11:11:46;;;;;;;5.50;2.67;;;;;;;44.26;15.30;101297.69;5064547;28;20044;-79
2023/07/08 11:14:42;;;;;;;;;;;;;;;41.69;17.15;101289.47;5025734;28;20037;-81
2023/07/08 11:17:29;;;;;;;3.20;2.17;;;;;;;46.66;13.77;101303.47;5042847;28;20374;-80
2023/07/08 11:20:24;;;;;;;4.38;2.40;;;;;;;45.09;14.10;101287.31;5032421;28;20056;-80
2023/07/08 11:23:17;;;;;;;3.65;2.83;;;;;;;44.07;15.63;101288.22;5036229;28;20046;-81
2023/07/08 11:26:10;;;;;;;4.43;2.47;;;;;;;45.67;14.45;101293.22;5015126;28;20548;-78
2023/07/08 11:29:00;;;;;;;3.78;2.83;;;;;;;48.77;12.42;101289.53;5016647;28;20048;-81
2023/07/08 11:31:47;;;;;;;4.43;2.30;;;;;;;45.71;14.11;101275.66;5018160;28;20045;-81
2023/07/08 11:34:33;;;;;;;5.07;2.38;;;;;;;44.44;14.66;101285.50;5050106;28;20057;-80
2023/07/08 11:37:21;;;;;;;4.10;2.65;;;;;;;49.52;11.15;101284.59;5016380;28;20045;-80
2023/07/08 11:40:18;;;;;;;4.00;2.80;;;;;;;49.80;10.96;101272.84;5017505;28;20061;-80
2023/07/08 11:43:06;;;;;;;5.50;2.55;;;;;;;47.79;11.11;101269.44;4997454;28;20049;-80
2023/07/08 11:45:55;;;;;;;3.10;2.47;;;;;;;46.41;13.26;101262.63;5026804;28;20053;-79
2023/07/08 11:48:45;;;;;;;4.05;2.60;;;;;;;48.82;11.45;101265.47;5001523;28;20045;-80
2023/07/08 11:51:37;;;;;;;4.90;2.75;;;;;;;46.50;11.99;101259.28;5047087;28;20045;-80
2023/07/08 11:54:31;;;;;;;14.15;2.95;;;;;;;45.77;12.32;101248.34;5018061;28;20049;-80
2023/07/08 11:57:44;;;;;;;5.20;3.28;;;;;;;45.27;13.55;101243.41;5044847;28;20052;-81
2023/07/08 12:00:34;;;;;;;6.13;3.03;;;;;;;43.25;15.53;101228.94;5019976;28;20410;-79
2023/07/08 12:03:21;;;;;;;3.28;2.30;;;;;;;41.13;16.89;101230.69;5017361;28;20407;-79
2023/07/08 12:06:28;;;;;;;3.80;2.15;;;;;;;45.67;13.69;101232.09;5019728;28;20049;-80
2023/07/08 12:09:27;;;;;;;5.10;3.20;;;;;;;47.44;12.52;101233.38;5025429;28;20036;-82
2023/07/08 12:12:23;;;;;;;3.00;2.20;;;;;;;46.34;12.90;101229.50;5038655;28;20042;-81
2023/07/08 12:15:14;;;;;;;5.95;3.08;;;;;;;44.62;14.50;101220.81;5017290;28;20045;-80
2023/07/08 12:18:11;;;;;;;5.60;2.50;;;;;;;47.24;13.13;101219.69;5039792;28;20045;-81
2023/07/08 12:20:58;;;;;;;8.63;2.95;;;;;;;44.28;14.76;101215.53;5018311;28;20045;-80
2023/07/08 12:23:47;;;;;;;14.80;3.47;;;;;;;47.30;12.78;101220.34;5016922;28;20521;-81
2023/07/08 12:26:35;;;;;;;10.55;3.20;;;;;;;46.88;13.27;101212.94;5013730;28;20056;-81
2023/07/08 12:29:19;;;;;;;7.13;2.95;;;;;;;46.64;12.09;101208.22;5021473;28;20053;-80
2023/07/08 12:32:05;;;;;;;3.42;2.60;;;;;;;44.48;14.22;101199.88;5022620;28;20052;-80
2023/07/08 12:34:50;;;;;;;4.90;2.92;;;;;;;45.42;13.89;101200.63;5016738;28;20118;-80
2023/07/08 12:37:35;;;;;;;11.63;3.28;;;;;;;43.74;14.60;101188.94;5015159;28;20049;-81
2023/07/08 12:40:24;;;;;;;9.18;3.03;;;;;;;42.99;15.92;101189.28;5015812;28;20419;-80
2023/07/08 12:43:10;;;;;;;7.30;2.83;;;;;;;39.62;18.25;101184.25;5016245;28;20092;-82
2023/07/08 12:45:55;;;;;;;7.93;2.88;;;;;;;40.34;17.56;101181.09;5017740;28;20099;-83
2023/07/08 12:48:40;;;;;;;6.28;3.20;;;;;;;40.45;18.93;101188.94;5028934;28;20069;-81
2023/07/08 12:51:27;;;;;;;8.63;3.00;;;;;;;39.27;19.94;101186.50;5016125;28;20411;-78
2023/07/08 12:54:12;;;;;;;8.73;3.65;;;;;;;35.01;23.96;101171.13;5014345;28;20458;-78
2023/07/08 12:56:58;;;;;;;6.25;3.28;;;;;;;34.06;25.13;101173.19;5014768;28;20053;-77
2023/07/08 12:59:44;;;;;;;4.78;2.85;;;;;;;33.65;26.11;101163.94;5012196;28;20052;-77
2023/07/08 13:02:31;;;;;;;8.50;3.22;;;;;;;32.52;29.10;101168.13;5009827;28;20045;-77
2023/07/08 13:05:17;;;;;;;212.27;42.95;;;;;;;31.93;30.35;101169.69;5027574;28;20419;-76
2023/07/08 13:08:01;;;;;;;99.45;22.23;;;;;;;31.27;30.57;101173.31;5021613;28;20050;-78